createdAt,value
2018-04-19T00:02:20.057Z,67.50
2018-04-19T00:04:47.529Z,67.80
2018-04-19T00:07:14.991Z,67.60
2018-04-19T00:09:42.489Z,67.10
2018-04-19T00:12:09.942Z,68.10
2018-04-19T00:14:37.418Z,68.10
2018-04-19T00:17:04.887Z,68.00
2018-04-19T00:19:32.341Z,67.90
2018-04-19T00:21:59.822Z,67.90
2018-04-19T00:24:27.290Z,67.90
2018-04-19T00:26:54.751Z,68.00
2018-04-19T00:29:22.210Z,68.10
2018-04-19T00:31:49.673Z,68.00
2018-04-19T00:34:17.137Z,67.40
2018-04-19T00:36:44.614Z,67.50
2018-04-19T00:39:12.866Z,67.70
2018-04-19T00:41:40.326Z,67.70
2018-04-19T00:44:07.776Z,67.80
2018-04-19T00:46:35.238Z,67.70
2018-04-19T00:49:02.702Z,67.90
2018-04-19T00:51:30.199Z,68.10
2018-04-19T00:53:57.668Z,68.00
2018-04-19T00:56:25.132Z,67.90
2018-04-19T00:58:52.583Z,68.30
2018-04-19T01:01:20.049Z,68.00
2018-04-19T01:03:47.512Z,68.20
2018-04-19T01:06:14.978Z,68.30
2018-04-19T01:08:42.463Z,68.20
2018-04-19T01:11:10.692Z,68.10
2018-04-19T01:13:38.161Z,68.10
2018-04-19T01:16:05.628Z,68.50
2018-04-19T01:18:33.098Z,68.60
2018-04-19T01:21:00.574Z,68.50
2018-04-19T01:23:28.039Z,68.70
2018-04-19T01:25:55.507Z,68.80
2018-04-19T01:28:22.965Z,69.00
2018-04-19T01:30:50.421Z,69.10
2018-04-19T01:33:17.883Z,69.10
2018-04-19T01:36:12.119Z,69.20
2018-04-19T01:38:39.587Z,69.70
2018-04-19T01:41:07.046Z,69.70
2018-04-19T01:43:34.527Z,70.00
2018-04-19T01:46:01.983Z,70.30
2018-04-19T01:48:29.433Z,70.40
2018-04-19T01:50:56.906Z,70.40
2018-04-19T01:53:24.364Z,70.20
2018-04-19T01:55:51.847Z,70.60
2018-04-19T01:58:19.311Z,70.50
2018-04-19T02:00:46.763Z,70.20
2018-04-19T02:03:14.225Z,70.40
2018-04-19T02:05:41.683Z,70.70
2018-04-19T02:08:09.169Z,71.20
2018-04-19T02:10:36.627Z,71.20
2018-04-19T02:13:04.095Z,71.20
2018-04-19T02:15:31.564Z,71.70
2018-04-19T02:17:59.039Z,71.70
2018-04-19T02:20:26.500Z,71.80
2018-04-19T02:22:53.964Z,72.20
2018-04-19T02:25:21.431Z,72.50
2018-04-19T02:27:48.896Z,72.60
2018-04-19T02:30:16.371Z,73.10
2018-04-19T02:32:44.627Z,73.20
2018-04-19T02:35:12.078Z,73.20
2018-04-19T02:37:39.551Z,73.30
2018-04-19T02:40:07.019Z,73.10
2018-04-19T02:42:34.492Z,73.00
2018-04-19T02:45:01.973Z,72.70
2018-04-19T02:47:29.433Z,73.00
2018-04-19T02:49:56.891Z,72.60
2018-04-19T02:52:24.347Z,72.80
2018-04-19T02:54:51.809Z,72.80
2018-04-19T02:57:19.293Z,72.60
2018-04-19T02:59:47.523Z,72.50
2018-04-19T03:02:14.986Z,72.50
2018-04-19T03:04:42.442Z,72.50
2018-04-19T03:07:09.909Z,72.50
2018-04-19T03:09:37.379Z,72.40
2018-04-19T03:12:04.842Z,72.70
2018-04-19T03:14:32.305Z,73.00
2018-04-19T03:16:59.792Z,72.90
2018-04-19T03:19:28.004Z,73.50
2018-04-19T03:21:56.256Z,73.60
2018-04-19T03:24:23.711Z,73.60
2018-04-19T03:26:51.177Z,73.70
2018-04-19T03:29:18.652Z,73.80
2018-04-19T03:31:46.117Z,73.70
2018-04-19T03:34:13.601Z,73.80
2018-04-19T03:36:41.829Z,74.20
2018-04-19T03:39:09.311Z,74.20
2018-04-19T03:41:36.767Z,74.50
2018-04-19T03:44:04.235Z,74.40
2018-04-19T03:46:31.699Z,74.70
2018-04-19T03:48:59.177Z,75.00
2018-04-19T03:51:26.657Z,75.60
2018-04-19T03:53:54.174Z,76.30
2018-04-19T03:56:22.365Z,76.90
2018-04-19T03:58:49.831Z,76.90
2018-04-19T04:01:17.295Z,77.20
2018-04-19T04:03:44.756Z,77.50
2018-04-19T04:06:12.227Z,77.60
2018-04-19T04:08:39.698Z,78.20
2018-04-19T04:11:07.177Z,78.30
2018-04-19T04:13:34.642Z,78.50
2018-04-19T04:16:02.108Z,78.80
2018-04-19T04:18:41.529Z,78.90
2018-04-19T04:21:17.597Z,79.10
2018-04-19T04:23:51.933Z,79.20
2018-04-19T04:26:19.391Z,80.00
2018-04-19T04:28:47.703Z,80.10
2018-04-19T04:31:15.287Z,80.10
2018-04-19T04:33:42.646Z,80.10
2018-04-19T04:36:10.113Z,79.60
2018-04-19T04:38:37.589Z,80.00
2018-04-19T04:41:05.049Z,79.60
2018-04-19T04:43:32.527Z,81.10
2018-04-19T04:46:00.009Z,80.30
2018-04-19T04:48:27.469Z,80.00
2018-04-19T04:50:54.934Z,79.50
2018-04-19T04:53:22.404Z,79.80
2018-04-19T04:55:49.875Z,79.60
2018-04-19T04:58:17.338Z,79.50
2018-04-19T05:00:45.567Z,79.20
2018-04-19T05:03:13.028Z,79.00
2018-04-19T05:05:40.523Z,78.80
2018-04-19T05:08:07.971Z,78.50
2018-04-19T05:10:35.424Z,77.70
2018-04-19T05:13:02.905Z,77.80
2018-04-19T05:15:30.370Z,77.40
2018-04-19T05:17:58.621Z,76.80
2018-04-19T05:20:26.131Z,76.70
2018-04-19T05:22:53.567Z,77.40
2018-04-19T05:25:21.051Z,76.30
2018-04-19T05:27:48.516Z,76.60
2018-04-19T05:30:15.984Z,76.80
2018-04-19T05:32:43.451Z,76.20
2018-04-19T05:35:10.934Z,76.60
2018-04-19T05:37:39.182Z,76.40
2018-04-19T05:40:06.661Z,76.40
2018-04-19T05:42:34.166Z,76.40
2018-04-19T05:45:01.628Z,76.60
2018-04-19T05:47:29.092Z,76.10
2018-04-19T05:49:56.579Z,76.30
2018-04-19T05:52:24.045Z,76.50
2018-04-19T05:54:51.590Z,76.30
2018-04-19T05:57:19.072Z,76.30
2018-04-19T05:59:46.530Z,76.60
2018-04-19T06:02:14.015Z,76.70
2018-04-19T06:04:41.485Z,77.30
2018-04-19T06:07:08.941Z,76.20
2018-04-19T06:09:36.412Z,76.00
2018-04-19T06:12:03.895Z,76.50
2018-04-19T06:14:31.372Z,77.00
2018-04-19T06:16:59.599Z,75.90
2018-04-19T06:19:27.104Z,75.90
2018-04-19T06:21:54.543Z,76.00
2018-04-19T06:24:22.018Z,76.00
2018-04-19T06:26:49.507Z,76.10
2018-04-19T06:29:17.755Z,76.30
2018-04-19T06:31:45.223Z,75.50
2018-04-19T06:34:12.694Z,76.10
2018-04-19T06:36:40.164Z,75.70
2018-04-19T06:39:07.639Z,75.40
2018-04-19T06:41:35.920Z,73.40
2018-04-19T06:44:03.383Z,73.30
2018-04-19T06:46:30.851Z,72.00
2018-04-19T06:48:59.126Z,71.20
2018-04-19T06:51:26.579Z,71.20
2018-04-19T06:53:54.032Z,70.90
2018-04-19T06:56:21.514Z,71.00
2018-04-19T06:58:48.974Z,70.50
2018-04-19T07:01:16.469Z,70.40
2018-04-19T07:03:43.954Z,71.00
2018-04-19T07:06:11.434Z,71.00
2018-04-19T07:08:38.896Z,71.20
2018-04-19T07:11:06.368Z,70.70
2018-04-19T07:13:33.822Z,70.70
2018-04-19T07:16:01.332Z,70.20
2018-04-19T07:18:28.782Z,69.60
2018-04-19T07:20:56.236Z,67.40
2018-04-19T07:23:23.718Z,66.60
2018-04-19T07:25:52.041Z,66.30
2018-04-19T07:28:20.246Z,63.10
2018-04-19T07:30:47.730Z,63.10
2018-04-19T07:33:15.194Z,62.90
2018-04-19T07:35:42.690Z,63.70
2018-04-19T07:38:10.922Z,63.40
2018-04-19T07:40:38.390Z,63.40
2018-04-19T07:43:05.867Z,63.80
2018-04-19T07:45:33.353Z,63.60
2018-04-19T07:48:01.600Z,61.00
2018-04-19T07:50:29.062Z,61.00
2018-04-19T07:52:56.541Z,60.10
2018-04-19T07:55:24.012Z,60.50
2018-04-19T07:57:51.503Z,60.50
2018-04-19T08:00:19.748Z,59.70
2018-04-19T08:02:47.206Z,59.70
2018-04-19T08:05:14.684Z,59.10
2018-04-19T08:07:42.140Z,60.10
2018-04-19T08:10:09.608Z,60.10
2018-04-19T08:12:37.083Z,61.30
2018-04-19T08:15:05.327Z,60.10
2018-04-19T08:17:32.795Z,60.10
2018-04-19T08:20:00.255Z,60.40
2018-04-19T08:22:27.729Z,59.80
2018-04-19T08:24:55.214Z,60.70
2018-04-19T08:27:23.447Z,60.10
2018-04-19T08:29:50.910Z,59.50
2018-04-19T08:32:18.375Z,58.20
2018-04-19T08:34:45.850Z,58.30
2018-04-19T08:37:13.339Z,59.00
2018-04-19T08:39:40.828Z,58.80
2018-04-19T08:42:09.061Z,59.60
2018-04-19T08:44:36.559Z,59.60
2018-04-19T08:47:04.008Z,57.90
2018-04-19T08:49:31.487Z,58.60
2018-04-19T08:51:59.718Z,59.70
2018-04-19T08:54:27.195Z,59.60
2018-04-19T08:56:54.662Z,58.60
2018-04-19T08:59:22.126Z,58.30
2018-04-19T09:01:49.602Z,57.50
2018-04-19T09:04:17.824Z,57.50
2018-04-19T09:06:45.324Z,57.50
2018-04-19T09:09:12.785Z,56.30
2018-04-19T09:11:40.265Z,56.10
2018-04-19T09:14:07.737Z,55.20
2018-04-19T09:16:35.201Z,55.20
2018-04-19T09:19:02.671Z,55.60
2018-04-19T09:21:30.137Z,56.60
2018-04-19T09:23:57.623Z,56.00
2018-04-19T09:26:25.854Z,55.70
2018-04-19T09:28:53.327Z,55.60
2018-04-19T09:31:20.790Z,54.50
2018-04-19T09:33:49.012Z,54.00
2018-04-19T09:36:17.252Z,54.00
2018-04-19T09:38:44.706Z,53.90
2018-04-19T09:41:12.183Z,52.60
2018-04-19T09:43:39.655Z,51.90
2018-04-19T09:46:07.136Z,52.70
2018-04-19T09:48:34.603Z,50.80
2018-04-19T09:51:02.836Z,48.30
2018-04-19T09:53:30.326Z,48.30
2018-04-19T09:55:57.798Z,47.60
2018-04-19T09:58:25.265Z,49.20
2018-04-19T10:00:58.454Z,48.80
2018-04-19T10:03:25.946Z,48.10
2018-04-19T10:06:00.036Z,46.10
2018-04-19T10:08:27.500Z,46.00
2018-04-19T10:10:54.982Z,47.20
2018-04-19T10:13:23.205Z,46.70
2018-04-19T10:15:50.684Z,46.60
2018-04-19T10:18:18.145Z,46.30
2018-04-19T10:20:45.604Z,44.10
2018-04-19T10:23:13.082Z,45.70
2018-04-19T10:25:40.545Z,46.40
2018-04-19T10:28:08.021Z,44.70
2018-04-19T10:30:35.486Z,44.50
2018-04-19T10:33:02.951Z,45.40
2018-04-19T10:35:30.410Z,43.90
2018-04-19T10:37:57.880Z,43.20
2018-04-19T10:40:25.366Z,43.10
2018-04-19T10:42:53.585Z,42.20
2018-04-19T10:45:21.039Z,42.10
2018-04-19T10:47:48.497Z,42.70
2018-04-19T10:50:15.965Z,43.40
2018-04-19T10:52:43.463Z,43.10
2018-04-19T10:55:10.931Z,43.40
2018-04-19T10:57:38.408Z,44.50
2018-04-19T11:00:05.866Z,43.40
2018-04-19T11:02:33.330Z,42.60
2018-04-19T11:05:00.900Z,41.80
2018-04-19T11:07:28.363Z,40.80
2018-04-19T11:09:55.852Z,41.70
2018-04-19T11:12:24.079Z,43.50
2018-04-19T11:14:51.566Z,43.40
2018-04-19T11:17:19.029Z,43.90
2018-04-19T11:19:46.504Z,40.70
2018-04-19T11:22:13.971Z,41.30
2018-04-19T11:24:42.203Z,39.70
2018-04-19T11:27:09.684Z,39.50
2018-04-19T11:29:37.154Z,39.90
2018-04-19T11:32:04.644Z,39.90
2018-04-19T11:34:32.881Z,40.90
2018-04-19T11:37:00.380Z,40.90
2018-04-19T11:39:27.834Z,40.20
2018-04-19T11:41:55.296Z,40.20
2018-04-19T11:44:22.768Z,42.60
2018-04-19T11:46:50.236Z,41.60
2018-04-19T11:49:17.699Z,42.10
2018-04-19T11:51:45.168Z,41.10
2018-04-19T11:54:12.650Z,40.70
2018-04-19T11:56:40.114Z,40.50
2018-04-19T11:59:08.363Z,42.60
2018-04-19T12:01:35.833Z,42.70
2018-04-19T12:04:03.311Z,41.10
2018-04-19T12:06:31.536Z,41.80
2018-04-19T12:08:59.004Z,41.80
2018-04-19T12:11:26.474Z,40.80
2018-04-19T12:13:53.928Z,40.60
2018-04-19T12:16:21.434Z,39.80
2018-04-19T12:18:48.890Z,38.60
2018-04-19T12:21:16.398Z,38.40
2018-04-19T12:23:43.874Z,37.90
2018-04-19T12:26:11.324Z,40.10
2018-04-19T12:28:38.803Z,40.50
2018-04-19T12:31:06.276Z,41.20
2018-04-19T12:33:33.750Z,40.30
2018-04-19T12:36:01.242Z,40.60
2018-04-19T12:38:28.716Z,39.50
2018-04-19T12:40:56.969Z,41.00
2018-04-19T12:43:24.552Z,41.00
2018-04-19T12:45:52.039Z,41.30
2018-04-19T12:48:20.273Z,39.00
2018-04-19T12:50:47.746Z,39.00
2018-04-19T12:53:15.230Z,39.90
2018-04-19T12:55:42.734Z,39.00
2018-04-19T12:58:10.248Z,39.50
2018-04-19T13:00:37.684Z,39.20
2018-04-19T13:03:05.160Z,39.80
2018-04-19T13:05:32.614Z,37.40
2018-04-19T13:08:00.080Z,37.90
2018-04-19T13:10:28.328Z,39.20
2018-04-19T13:12:55.856Z,39.20
2018-04-19T13:15:23.310Z,38.50
2018-04-19T13:17:50.902Z,39.40
2018-04-19T13:20:19.152Z,40.70
2018-04-19T13:22:46.617Z,40.80
2018-04-19T13:25:14.185Z,39.70
2018-04-19T13:27:41.649Z,40.20
2018-04-19T13:30:09.228Z,40.30
2018-04-19T13:32:36.696Z,39.20
2018-04-19T13:35:04.180Z,40.20
2018-04-19T13:37:31.708Z,39.80
2018-04-19T13:39:59.187Z,40.20
2018-04-19T13:42:26.656Z,39.10
2018-04-19T13:44:54.921Z,40.50
2018-04-19T13:47:22.430Z,40.50
2018-04-19T13:49:49.879Z,40.80
2018-04-19T13:52:18.129Z,39.30
2018-04-19T13:54:45.591Z,39.30
2018-04-19T13:57:13.062Z,39.80
2018-04-19T13:59:40.536Z,40.10
2018-04-19T14:02:08.808Z,40.20
2018-04-19T14:04:37.780Z,40.40
2018-04-19T14:07:05.243Z,40.40
2018-04-19T14:09:32.714Z,40.30
2018-04-19T14:12:00.176Z,39.40
2018-04-19T14:14:27.663Z,39.00
2018-04-19T14:16:55.133Z,39.20
2018-04-19T14:19:23.383Z,39.30
2018-04-19T14:21:50.857Z,39.30
2018-04-19T14:24:18.341Z,40.10
2018-04-19T14:26:46.569Z,39.70
2018-04-19T14:29:14.067Z,39.70
2018-04-19T14:31:41.545Z,40.90
2018-04-19T14:34:09.007Z,40.80
2018-04-19T14:36:36.471Z,41.70
2018-04-19T14:39:03.944Z,38.90
2018-04-19T14:41:32.207Z,40.70
2018-04-19T14:43:59.817Z,40.60
2018-04-19T14:46:27.294Z,40.10
2018-04-19T14:48:54.754Z,39.90
2018-04-19T14:51:22.224Z,40.50
2018-04-19T14:53:49.696Z,40.80
2018-04-19T14:56:17.145Z,41.20
2018-04-19T14:58:44.621Z,38.20
2018-04-19T15:01:12.088Z,39.50
2018-04-19T15:03:39.585Z,39.60
2018-04-19T15:06:07.049Z,39.80
2018-04-19T15:08:34.537Z,40.00
2018-04-19T15:11:02.771Z,40.20
2018-04-19T15:13:30.231Z,40.10
2018-04-19T15:15:57.704Z,41.20
2018-04-19T15:18:25.177Z,40.50
2018-04-19T15:20:52.641Z,40.50
2018-04-19T15:23:20.122Z,40.00
2018-04-19T15:25:47.622Z,40.00
2018-04-19T15:28:15.097Z,40.40
2018-04-19T15:30:42.587Z,40.00
2018-04-19T15:33:10.064Z,41.00
2018-04-19T15:35:37.535Z,40.70
2018-04-19T15:38:04.995Z,40.60
2018-04-19T15:40:32.457Z,40.80
2018-04-19T15:42:59.957Z,40.80
2018-04-19T15:45:28.185Z,40.20
2018-04-19T15:47:55.685Z,40.50
2018-04-19T15:50:23.114Z,41.20
2018-04-19T15:52:50.604Z,40.60
2018-04-19T15:55:18.077Z,40.60
2018-04-19T15:57:46.331Z,41.20
2018-04-19T16:00:13.802Z,41.20
2018-04-19T16:02:41.266Z,40.80
2018-04-19T16:05:08.741Z,39.20
2018-04-19T16:07:36.206Z,39.50
2018-04-19T16:10:03.658Z,40.20
2018-04-19T16:12:31.152Z,40.30
2018-04-19T16:14:58.634Z,40.30
2018-04-19T16:17:26.099Z,40.10
2018-04-19T16:19:53.567Z,40.30
2018-04-19T16:22:21.032Z,39.80
2018-04-19T16:24:48.525Z,40.90
2018-04-19T16:27:15.995Z,41.70
2018-04-19T16:29:43.480Z,41.70
2018-04-19T16:32:10.939Z,42.50
2018-04-19T16:34:38.404Z,41.20
2018-04-19T16:37:06.642Z,41.80
2018-04-19T16:39:34.130Z,41.80
2018-04-19T16:42:01.605Z,41.70
2018-04-19T16:44:29.057Z,40.90
2018-04-19T16:46:56.533Z,41.10
2018-04-19T16:49:24.001Z,40.80
2018-04-19T16:51:51.472Z,41.10
2018-04-19T16:54:19.704Z,41.70
2018-04-19T16:56:47.177Z,41.60
2018-04-19T16:59:14.656Z,41.80
2018-04-19T17:01:42.127Z,42.10
2018-04-19T17:04:09.622Z,42.10
2018-04-19T17:06:37.097Z,42.20
2018-04-19T17:09:05.437Z,42.30
2018-04-19T17:11:32.909Z,41.60
2018-04-19T17:14:00.374Z,41.90
2018-04-19T17:16:27.934Z,42.10
2018-04-19T17:18:55.507Z,42.10
2018-04-19T17:21:22.973Z,42.00
2018-04-19T17:23:50.450Z,41.80
2018-04-19T17:26:18.687Z,40.70
2018-04-19T17:28:46.184Z,40.70
2018-04-19T17:31:14.418Z,40.70
2018-04-19T17:33:41.916Z,40.40
2018-04-19T17:36:09.408Z,40.40
2018-04-19T17:38:37.655Z,39.90
2018-04-19T17:41:05.141Z,39.90
2018-04-19T17:43:33.383Z,40.30
2018-04-19T17:46:00.862Z,40.40
2018-04-19T17:48:28.324Z,40.80
2018-04-19T17:50:55.800Z,41.50
2018-04-19T17:53:23.282Z,41.50
2018-04-19T17:55:51.504Z,42.30
2018-04-19T17:58:19.010Z,42.30
2018-04-19T18:00:46.549Z,42.90
2018-04-19T18:03:14.729Z,43.70
2018-04-19T18:05:42.201Z,43.70
2018-04-19T18:08:09.668Z,44.30
2018-04-19T18:10:37.143Z,44.60
2018-04-19T18:13:04.647Z,45.00
2018-04-19T18:15:32.142Z,45.40
2018-04-19T18:17:59.620Z,45.60
2018-04-19T18:20:27.092Z,46.20
2018-04-19T18:22:54.565Z,46.30
2018-04-19T18:25:22.034Z,47.00
2018-04-19T18:27:50.315Z,47.20
2018-04-19T18:30:17.764Z,47.20
2018-04-19T18:32:45.234Z,47.30
2018-04-19T18:35:12.715Z,47.70
2018-04-19T18:37:40.948Z,48.00
2018-04-19T18:40:08.418Z,48.00
2018-04-19T18:42:35.878Z,48.10
2018-04-19T18:45:04.123Z,48.30
2018-04-19T18:47:31.597Z,48.30
2018-04-19T18:49:59.072Z,48.30
2018-04-19T18:52:26.532Z,48.40
2018-04-19T18:54:53.998Z,48.70
2018-04-19T18:57:21.477Z,48.50
2018-04-19T18:59:48.988Z,48.60
2018-04-19T19:02:17.252Z,49.60
2018-04-19T19:04:44.718Z,49.50
2018-04-19T19:07:12.188Z,50.20
2018-04-19T19:09:39.667Z,51.00
2018-04-19T19:12:07.910Z,51.70
2018-04-19T19:14:35.410Z,51.70
2018-04-19T19:17:15.558Z,52.30
2018-04-19T19:19:55.670Z,52.50
2018-04-19T19:22:23.154Z,52.50
2018-04-19T19:24:50.625Z,53.00
2018-04-19T19:27:18.085Z,53.10
2018-04-19T19:29:45.555Z,53.40
2018-04-19T19:32:13.058Z,53.40
2018-04-19T19:34:40.529Z,53.50
2018-04-19T19:37:07.994Z,54.00
2018-04-19T19:39:35.460Z,54.90
2018-04-19T19:42:02.940Z,54.80
2018-04-19T19:44:30.430Z,54.80
2018-04-19T19:46:57.904Z,55.50
2018-04-19T19:49:25.388Z,55.60
2018-04-19T19:51:53.623Z,55.90
2018-04-19T19:54:21.101Z,55.90
2018-04-19T19:56:48.563Z,56.00
2018-04-19T19:59:16.825Z,56.20
2018-04-19T20:01:44.312Z,56.20
2018-04-19T20:04:11.799Z,56.40
2018-04-19T20:06:40.019Z,56.80
2018-04-19T20:09:08.232Z,56.80
2018-04-19T20:11:35.692Z,56.90
2018-04-19T20:14:03.188Z,56.90
2018-04-19T20:16:31.432Z,57.30
2018-04-19T20:18:58.925Z,57.30
2018-04-19T20:21:27.160Z,58.10
2018-04-19T20:23:54.637Z,58.10
2018-04-19T20:26:22.119Z,58.40
2018-04-19T20:28:49.581Z,58.60
2018-04-19T20:31:17.083Z,58.90
2018-04-19T20:33:44.540Z,58.90
2018-04-19T20:36:12.019Z,59.10
2018-04-19T20:38:39.495Z,59.60
2018-04-19T20:41:06.955Z,60.40
2018-04-19T20:43:34.431Z,61.00
2018-04-19T20:46:01.898Z,61.40
2018-04-19T20:48:29.370Z,61.30
2018-04-19T20:50:56.830Z,61.40
2018-04-19T20:53:24.314Z,61.50
2018-04-19T20:55:51.772Z,61.60
2018-04-19T20:58:19.260Z,61.90
2018-04-19T21:00:46.750Z,62.30
2018-04-19T21:03:14.242Z,63.00
2018-04-19T21:05:41.685Z,63.20
2018-04-19T21:08:09.165Z,63.40
2018-04-19T21:10:36.628Z,63.70
2018-04-19T21:13:04.111Z,63.90
2018-04-19T21:15:31.568Z,64.30
2018-04-19T21:17:59.063Z,64.90
2018-04-19T21:20:26.529Z,65.60
2018-04-19T21:22:53.997Z,65.90
2018-04-19T21:25:22.218Z,65.80
2018-04-19T21:27:49.681Z,65.80
2018-04-19T21:30:17.163Z,65.90
2018-04-19T21:32:44.631Z,66.50
2018-04-19T21:35:12.097Z,65.70
2018-04-19T21:37:39.577Z,65.90
2018-04-19T21:40:07.049Z,66.40
2018-04-19T21:42:34.510Z,66.90
2018-04-19T21:45:01.975Z,66.70
2018-04-19T21:47:29.508Z,66.70
2018-04-19T21:49:57.691Z,66.70
2018-04-19T21:52:25.933Z,67.50
2018-04-19T21:54:53.389Z,66.60
2018-04-19T21:57:20.859Z,66.60
2018-04-19T21:59:48.345Z,66.40
2018-04-19T22:02:15.816Z,66.50
2018-04-19T22:04:43.305Z,66.60
2018-04-19T22:07:10.764Z,66.70
2018-04-19T22:09:38.213Z,66.70
2018-04-19T22:12:05.701Z,67.00
2018-04-19T22:14:33.171Z,66.80
2018-04-19T22:17:00.645Z,66.10
2018-04-19T22:19:28.865Z,66.10
2018-04-19T22:21:56.337Z,66.10
2018-04-19T22:24:23.806Z,66.30
2018-04-19T22:26:51.280Z,66.50
2018-04-19T22:29:19.519Z,67.10
2018-04-19T22:31:47.753Z,66.90
2018-04-19T22:34:15.240Z,66.90
2018-04-19T22:36:42.711Z,67.20
2018-04-19T22:39:10.930Z,67.50
2018-04-19T22:41:38.400Z,67.50
2018-04-19T22:44:05.862Z,67.50
2018-04-19T22:46:33.345Z,67.30
2018-04-19T22:49:00.824Z,67.70
2018-04-19T22:51:28.289Z,68.00
2018-04-19T22:53:55.749Z,67.90
2018-04-19T22:56:23.213Z,68.30
2018-04-19T22:58:50.697Z,68.00
2018-04-19T23:01:18.162Z,68.10
2018-04-19T23:03:45.641Z,68.00
2018-04-19T23:06:13.864Z,67.20
2018-04-19T23:08:41.327Z,67.50
2018-04-19T23:11:08.790Z,67.10
2018-04-19T23:13:36.258Z,67.20
2018-04-19T23:16:03.743Z,66.50
2018-04-19T23:18:31.206Z,66.90
2018-04-19T23:20:58.702Z,66.80
2018-04-19T23:23:26.934Z,66.60
2018-04-19T23:25:54.390Z,66.60
2018-04-19T23:28:21.842Z,66.70
2018-04-19T23:30:49.310Z,66.40
2018-04-19T23:33:16.780Z,66.40
2018-04-19T23:35:44.252Z,66.40
2018-04-19T23:38:11.742Z,67.00
2018-04-19T23:40:39.196Z,66.20
2018-04-19T23:43:06.673Z,65.90
2018-04-19T23:45:34.142Z,65.50
2018-04-19T23:48:01.600Z,65.40
2018-04-19T23:50:29.070Z,65.40
2018-04-19T23:52:57.311Z,65.10
2018-04-19T23:55:24.782Z,65.10
2018-04-19T23:57:52.231Z,64.70
